Crater Lake Natl Park, Oregon
Current Conditions -  °F | °C
As of 7:21 PM on Friday 19 Dec 2014 (Local Time) from KMFR Reporting Station
Broken Clouds Broken Clouds  
Wind Chill: 46°   Ceiling: 5500
Heat Index: 46°   Visibility: 9mi
Dew Point: 44°   Wind: 0mph
Humidity: 93%   Direction: NA
Pressure: 30.04"   Gusts: NA
Location:  42.82°N, 122.13°W
Report Text: KMFR 200321Z 00000KT 9SM SCT015 BKN055 BKN065 08/07 A3004 RMK AO2 T00780067
Loading
Personal Weather Stations






























Interactive Weather Map New forecast layout! Learn more

10-Day Weather Forecast

Advertisements
Track Severe Weather on mobile